createdAt,value
2022-07-29T00:00:00.280Z,24.30
2022-07-29T00:02:28.244Z,24.26
2022-07-29T00:04:55.295Z,24.35
2022-07-29T00:07:22.203Z,24.33
2022-07-29T00:09:51.610Z,24.25
2022-07-29T00:12:25.419Z,24.16
2022-07-29T00:14:55.398Z,23.93
2022-07-29T00:17:22.496Z,23.88
2022-07-29T00:19:49.267Z,23.74
2022-07-29T00:22:16.364Z,23.44
2022-07-29T00:24:43.219Z,23.64
2022-07-29T00:27:10.039Z,23.95
2022-07-29T00:29:36.947Z,23.81
2022-07-29T00:32:04.305Z,23.84
2022-07-29T00:34:51.480Z,23.78
2022-07-29T00:37:18.327Z,23.65
2022-07-29T00:39:45.057Z,23.56
2022-07-29T00:42:12.128Z,23.49
2022-07-29T00:44:42.686Z,23.59
2022-07-29T00:47:11.248Z,23.49
2022-07-29T00:49:40.602Z,23.59
2022-07-29T00:52:08.677Z,23.42
2022-07-29T00:54:36.312Z,23.54
2022-07-29T00:57:10.756Z,23.64
2022-07-29T00:59:37.668Z,23.58
2022-07-29T01:02:04.857Z,23.62
2022-07-29T01:04:33.021Z,23.49
2022-07-29T01:07:04.468Z,23.02
2022-07-29T01:09:34.481Z,23.23
2022-07-29T01:12:14.204Z,23.33
2022-07-29T01:14:41.670Z,23.48
2022-07-29T01:17:38.011Z,23.19
2022-07-29T01:20:31.772Z,23.34
2022-07-29T01:23:33.477Z,23.12
2022-07-29T01:26:32.497Z,23.24
2022-07-29T01:29:07.649Z,23.52
2022-07-29T01:31:58.696Z,23.51
2022-07-29T01:34:32.764Z,23.47
2022-07-29T01:37:21.592Z,23.48
2022-07-29T01:39:52.156Z,23.33
2022-07-29T01:42:33.366Z,23.41
2022-07-29T01:45:10.949Z,23.13
2022-07-29T01:47:46.438Z,23.34
2022-07-29T01:50:17.526Z,23.16
2022-07-29T01:52:50.809Z,22.97
2022-07-29T01:55:21.267Z,23.19
2022-07-29T01:57:51.028Z,23.01
2022-07-29T02:00:18.697Z,23.14
2022-07-29T02:02:48.425Z,23.16
2022-07-29T02:05:18.693Z,22.68
2022-07-29T02:07:48.468Z,22.95
2022-07-29T02:10:18.066Z,23.08
2022-07-29T02:12:50.801Z,23.02
2022-07-29T02:15:19.286Z,23.03
2022-07-29T02:18:08.696Z,22.93
2022-07-29T02:20:37.236Z,22.93
2022-07-29T02:23:05.527Z,23.04
2022-07-29T02:25:37.223Z,22.93
2022-07-29T02:28:07.048Z,22.75
2022-07-29T02:30:36.117Z,22.86
2022-07-29T02:33:04.536Z,22.80
2022-07-29T02:35:34.975Z,22.77
2022-07-29T02:38:22.159Z,22.81
2022-07-29T02:40:51.056Z,22.76
2022-07-29T02:43:19.767Z,22.74
2022-07-29T02:45:52.409Z,22.77
2022-07-29T02:48:21.776Z,22.75
2022-07-29T02:50:55.777Z,22.81
2022-07-29T02:53:27.835Z,22.82
2022-07-29T02:56:00.639Z,22.84
2022-07-29T02:58:33.610Z,22.98
2022-07-29T03:01:06.478Z,22.98
2022-07-29T03:03:37.185Z,22.99
2022-07-29T03:06:05.076Z,22.90
2022-07-29T03:08:33.771Z,22.72
2022-07-29T03:11:02.901Z,22.61
2022-07-29T03:13:31.328Z,22.62
2022-07-29T03:16:00.149Z,22.47
2022-07-29T03:18:27.935Z,22.25
2022-07-29T03:20:55.107Z,22.46
2022-07-29T03:23:24.980Z,22.51
2022-07-29T03:25:52.255Z,22.62
2022-07-29T03:28:20.059Z,22.40
2022-07-29T03:30:49.284Z,22.38
2022-07-29T03:33:16.996Z,22.45
2022-07-29T03:35:43.827Z,22.32
2022-07-29T03:38:10.676Z,22.34
2022-07-29T03:40:53.277Z,22.36
2022-07-29T03:43:23.008Z,22.26
2022-07-29T03:45:53.099Z,22.04
2022-07-29T03:48:23.324Z,22.02
2022-07-29T03:50:51.794Z,22.04
2022-07-29T03:53:19.287Z,21.73
2022-07-29T03:55:54.977Z,21.74
2022-07-29T03:58:23.163Z,21.69
2022-07-29T04:00:50.836Z,21.64
2022-07-29T04:03:17.804Z,21.61
2022-07-29T04:05:44.658Z,21.31
2022-07-29T04:08:11.447Z,21.77
2022-07-29T04:10:39.280Z,21.60
2022-07-29T04:13:06.443Z,21.64
2022-07-29T04:15:33.273Z,21.88
2022-07-29T04:18:00.523Z,22.20
2022-07-29T04:20:27.455Z,22.35
2022-07-29T04:22:54.255Z,23.06
2022-07-29T04:25:21.187Z,23.61
2022-07-29T04:28:03.295Z,24.38
2022-07-29T04:30:31.940Z,24.65
2022-07-29T04:32:59.207Z,25.38
2022-07-29T04:35:26.095Z,25.99
2022-07-29T04:37:52.955Z,26.49
2022-07-29T04:40:39.835Z,26.36
2022-07-29T04:43:26.683Z,25.98
2022-07-29T04:45:54.238Z,25.76
2022-07-29T04:48:25.293Z,25.73
2022-07-29T04:50:55.455Z,25.98
2022-07-29T04:53:22.325Z,26.59
2022-07-29T04:55:49.082Z,27.10
2022-07-29T04:58:16.203Z,27.57
2022-07-29T05:00:43.025Z,27.50
2022-07-29T05:03:09.884Z,27.65
2022-07-29T05:05:36.938Z,28.04
2022-07-29T05:08:04.250Z,28.69
2022-07-29T05:10:31.041Z,29.22
2022-07-29T05:12:57.905Z,30.14
2022-07-29T05:15:24.770Z,30.96
2022-07-29T05:17:51.615Z,31.58
2022-07-29T05:20:19.560Z,31.94
2022-07-29T05:22:46.398Z,32.51
2022-07-29T05:25:13.136Z,32.80
2022-07-29T05:27:39.936Z,33.21
2022-07-29T05:30:07.426Z,33.57
2022-07-29T05:32:34.160Z,33.29
2022-07-29T05:35:01.144Z,32.90
2022-07-29T05:37:27.975Z,32.67
2022-07-29T05:39:56.815Z,33.22
2022-07-29T05:42:25.709Z,33.56
2022-07-29T05:44:53.005Z,33.38
2022-07-29T05:47:19.895Z,33.99
2022-07-29T05:49:47.282Z,34.44
2022-07-29T05:52:16.862Z,34.79
2022-07-29T05:54:44.365Z,34.78
2022-07-29T05:57:22.705Z,34.82
2022-07-29T05:59:50.518Z,35.01
2022-07-29T06:02:18.391Z,35.48
2022-07-29T06:04:45.398Z,35.62
2022-07-29T06:07:16.131Z,35.38
2022-07-29T06:09:43.466Z,35.67
2022-07-29T06:12:10.816Z,35.35
2022-07-29T06:14:38.986Z,35.01
2022-07-29T06:17:06.946Z,33.76
2022-07-29T06:19:36.556Z,33.47
2022-07-29T06:22:03.816Z,33.72
2022-07-29T06:24:30.586Z,32.32
2022-07-29T06:26:57.365Z,32.15
2022-07-29T06:29:24.313Z,32.43
2022-07-29T06:31:51.637Z,32.44
2022-07-29T06:34:21.194Z,32.52
2022-07-29T06:36:47.974Z,33.69
2022-07-29T06:39:15.668Z,33.89
2022-07-29T06:41:43.887Z,34.29
2022-07-29T06:44:12.902Z,34.25
2022-07-29T06:46:40.063Z,35.12
2022-07-29T06:49:07.172Z,35.64
2022-07-29T06:51:34.489Z,36.37
2022-07-29T06:54:03.304Z,36.83
2022-07-29T06:56:38.979Z,37.42
2022-07-29T06:59:08.884Z,37.72
2022-07-29T07:01:38.281Z,37.97
2022-07-29T07:04:05.717Z,38.01
2022-07-29T07:06:35.046Z,38.25
2022-07-29T07:09:02.804Z,38.43
2022-07-29T07:11:30.054Z,38.21
2022-07-29T07:14:14.540Z,38.26
2022-07-29T07:16:41.531Z,38.30
2022-07-29T07:19:09.505Z,38.15
2022-07-29T07:21:36.656Z,38.25
2022-07-29T07:24:03.765Z,38.35
2022-07-29T07:26:30.785Z,38.20
2022-07-29T07:28:57.993Z,37.95
2022-07-29T07:31:25.975Z,36.96
2022-07-29T07:33:56.391Z,37.10
2022-07-29T07:36:24.286Z,36.97
2022-07-29T07:38:51.994Z,37.54
2022-07-29T07:41:19.103Z,37.24
2022-07-29T07:43:49.136Z,37.04
2022-07-29T07:46:16.597Z,37.32
2022-07-29T07:48:43.637Z,37.57
2022-07-29T07:51:10.843Z,36.74
2022-07-29T07:53:37.817Z,36.75
2022-07-29T07:56:11.078Z,37.45
2022-07-29T07:58:39.894Z,37.57
2022-07-29T08:01:07.102Z,37.79
2022-07-29T08:03:34.566Z,37.36
2022-07-29T08:06:01.732Z,36.29
2022-07-29T08:08:28.580Z,35.94
2022-07-29T08:10:57.138Z,35.10
2022-07-29T08:13:28.421Z,35.54
2022-07-29T08:16:02.786Z,35.62
2022-07-29T08:18:32.415Z,36.17
2022-07-29T08:20:59.778Z,35.57
2022-07-29T08:23:32.850Z,35.12
2022-07-29T08:26:14.392Z,35.39
2022-07-29T08:28:46.994Z,35.39
2022-07-29T08:31:14.950Z,36.21
2022-07-29T08:33:41.976Z,35.12
2022-07-29T08:36:09.526Z,34.36
2022-07-29T08:38:36.461Z,35.28
2022-07-29T08:41:03.537Z,35.95
2022-07-29T08:43:30.640Z,36.06
2022-07-29T08:45:57.749Z,35.43
2022-07-29T08:48:25.913Z,36.07
2022-07-29T08:50:57.533Z,36.33
2022-07-29T08:53:28.281Z,35.84
2022-07-29T08:55:56.205Z,35.84
2022-07-29T08:58:25.581Z,35.94
2022-07-29T09:00:55.563Z,36.27
2022-07-29T09:03:30.703Z,36.88
2022-07-29T09:05:59.047Z,37.23
2022-07-29T09:08:26.585Z,36.86
2022-07-29T09:10:54.550Z,37.85
2022-07-29T09:13:21.454Z,38.07
2022-07-29T09:15:48.341Z,37.51
2022-07-29T09:18:36.505Z,37.44
2022-07-29T09:21:25.976Z,37.30
2022-07-29T09:24:08.444Z,36.66
2022-07-29T09:26:38.546Z,37.59
2022-07-29T09:29:17.770Z,37.47
2022-07-29T09:31:49.973Z,37.60
2022-07-29T09:34:22.606Z,37.78
2022-07-29T09:36:51.400Z,38.10
2022-07-29T09:39:28.456Z,38.71
2022-07-29T09:41:57.511Z,39.60
2022-07-29T09:44:25.574Z,40.60
2022-07-29T09:47:10.743Z,41.35
2022-07-29T09:49:55.865Z,40.02
2022-07-29T09:52:22.867Z,40.29
2022-07-29T09:54:49.836Z,40.63
2022-07-29T09:57:30.030Z,39.60
2022-07-29T10:00:19.315Z,39.70
2022-07-29T10:02:47.240Z,40.46
2022-07-29T10:05:22.838Z,41.24
2022-07-29T10:07:55.248Z,39.12
2022-07-29T10:10:24.245Z,37.36
2022-07-29T10:12:54.019Z,36.37
2022-07-29T10:15:24.214Z,37.04
2022-07-29T10:17:52.465Z,37.44
2022-07-29T10:20:19.745Z,38.23
2022-07-29T10:22:53.697Z,38.96
2022-07-29T10:25:21.776Z,39.24
2022-07-29T10:27:50.115Z,38.39
2022-07-29T10:30:18.102Z,38.68
2022-07-29T10:33:12.720Z,37.72
2022-07-29T10:35:54.675Z,37.29
2022-07-29T10:38:30.878Z,37.38
2022-07-29T10:41:28.987Z,36.92
2022-07-29T10:44:12.308Z,36.66
2022-07-29T10:46:44.931Z,37.23
2022-07-29T10:49:19.588Z,36.60
2022-07-29T10:51:57.815Z,36.20
2022-07-29T10:54:37.554Z,36.61
2022-07-29T10:57:54.151Z,37.67
2022-07-29T11:00:32.923Z,38.74
2022-07-29T11:03:00.719Z,39.89
2022-07-29T11:05:55.495Z,40.55
2022-07-29T11:08:28.018Z,41.41
2022-07-29T11:11:22.185Z,41.71
2022-07-29T11:13:52.326Z,42.32
2022-07-29T11:16:27.845Z,42.84
2022-07-29T11:19:13.612Z,43.30
2022-07-29T11:21:54.045Z,43.70
2022-07-29T11:24:30.028Z,43.79
2022-07-29T11:27:17.998Z,44.26
2022-07-29T11:29:56.629Z,44.15
2022-07-29T11:32:29.550Z,44.22
2022-07-29T11:35:19.118Z,44.51
2022-07-29T11:38:31.921Z,44.66
2022-07-29T11:41:27.557Z,45.08
2022-07-29T11:44:00.184Z,45.06
2022-07-29T11:46:50.080Z,45.46
2022-07-29T11:49:31.516Z,45.49
2022-07-29T11:52:03.153Z,42.32
2022-07-29T11:54:58.365Z,42.31
2022-07-29T11:57:23.104Z,42.08
2022-07-29T12:00:12.555Z,42.62
2022-07-29T12:02:48.195Z,43.14
2022-07-29T12:08:12.745Z,43.91
2022-07-29T12:10:43.076Z,44.27
2022-07-29T12:13:11.448Z,44.50
2022-07-29T12:15:47.007Z,44.61
2022-07-29T12:18:24.607Z,44.87
2022-07-29T12:20:59.574Z,44.98
2022-07-29T12:23:34.823Z,45.15
2022-07-29T12:26:07.659Z,45.20
2022-07-29T12:28:39.600Z,45.29
2022-07-29T12:31:08.265Z,45.32
2022-07-29T12:33:36.179Z,45.27
2022-07-29T12:36:10.338Z,45.53
2022-07-29T12:38:41.763Z,45.21
2022-07-29T12:41:10.034Z,44.92
2022-07-29T12:43:37.084Z,44.42
2022-07-29T12:46:15.938Z,44.05
2022-07-29T12:48:44.610Z,44.27
2022-07-29T12:51:13.555Z,43.42
2022-07-29T12:53:43.217Z,43.71
2022-07-29T12:56:40.662Z,42.42
2022-07-29T12:59:23.549Z,41.55
2022-07-29T13:01:52.386Z,40.54
2022-07-29T13:04:56.075Z,40.38
2022-07-29T13:07:55.804Z,39.08
2022-07-29T13:10:23.918Z,38.58
2022-07-29T13:13:09.945Z,39.45
2022-07-29T13:15:45.007Z,38.60
2022-07-29T13:18:37.628Z,39.55
2022-07-29T13:21:16.703Z,40.47
2022-07-29T13:23:46.086Z,41.27
2022-07-29T13:26:13.166Z,41.37
2022-07-29T13:28:44.042Z,40.00
2022-07-29T13:31:11.433Z,39.97
2022-07-29T13:33:38.515Z,40.59
2022-07-29T13:36:05.928Z,41.11
2022-07-29T13:38:32.854Z,41.37
2022-07-29T13:41:00.245Z,41.73
2022-07-29T13:43:27.188Z,42.16
2022-07-29T13:45:54.122Z,42.52
2022-07-29T13:48:21.865Z,42.61
2022-07-29T13:50:49.439Z,42.96
2022-07-29T13:53:17.998Z,42.78
2022-07-29T13:55:45.658Z,43.18
2022-07-29T13:58:15.148Z,43.14
2022-07-29T14:00:42.820Z,43.25
2022-07-29T14:03:09.636Z,43.37
2022-07-29T14:05:36.486Z,43.36
2022-07-29T14:08:03.376Z,43.51
2022-07-29T14:10:30.405Z,43.60
2022-07-29T14:12:57.274Z,43.52
2022-07-29T14:15:24.648Z,43.69
2022-07-29T14:17:51.467Z,43.62
2022-07-29T14:20:19.087Z,43.58
2022-07-29T14:22:45.973Z,43.65
2022-07-29T14:25:15.028Z,43.73
2022-07-29T14:27:42.697Z,43.44
2022-07-29T14:30:10.223Z,43.48
2022-07-29T14:32:37.029Z,43.45
2022-07-29T14:35:04.476Z,43.39
2022-07-29T14:37:40.025Z,43.10
2022-07-29T14:40:08.500Z,43.08
2022-07-29T14:42:35.341Z,42.73
2022-07-29T14:45:02.223Z,42.34
2022-07-29T14:47:29.007Z,42.52
2022-07-29T14:49:55.766Z,42.49
2022-07-29T14:52:22.712Z,42.63
2022-07-29T14:54:49.769Z,42.62
2022-07-29T14:57:17.526Z,42.76
2022-07-29T14:59:44.278Z,42.11
2022-07-29T15:02:11.162Z,41.61
2022-07-29T15:04:37.957Z,41.51
2022-07-29T15:07:05.046Z,40.69
2022-07-29T15:09:31.924Z,41.10
2022-07-29T15:12:04.111Z,41.23
2022-07-29T15:14:30.926Z,41.52
2022-07-29T15:16:57.980Z,41.80
2022-07-29T15:19:24.920Z,41.62
2022-07-29T15:21:51.735Z,41.67
2022-07-29T15:24:18.752Z,41.67
2022-07-29T15:26:45.844Z,41.60
2022-07-29T15:29:12.774Z,41.75
2022-07-29T15:31:39.701Z,41.68
2022-07-29T15:34:07.573Z,41.74
2022-07-29T15:36:52.527Z,41.61
2022-07-29T15:39:21.115Z,41.40
2022-07-29T15:41:47.996Z,41.34
2022-07-29T15:44:14.757Z,41.27
2022-07-29T15:47:00.997Z,41.06
2022-07-29T15:49:47.887Z,40.93
2022-07-29T15:52:25.032Z,40.71
2022-07-29T15:54:56.415Z,40.85
2022-07-29T15:57:24.132Z,40.67
2022-07-29T15:59:51.016Z,40.49
2022-07-29T16:02:17.920Z,40.41
2022-07-29T16:04:44.857Z,40.13
2022-07-29T16:07:11.785Z,40.05
2022-07-29T16:09:38.614Z,40.02
2022-07-29T16:12:14.823Z,40.09
2022-07-29T16:14:43.600Z,39.58
2022-07-29T16:17:14.995Z,39.61
2022-07-29T16:19:43.367Z,39.36
2022-07-29T16:22:10.536Z,39.28
2022-07-29T16:24:37.509Z,39.39
2022-07-29T16:27:04.636Z,39.22
2022-07-29T16:29:31.507Z,39.20
2022-07-29T16:31:58.427Z,39.06
2022-07-29T16:34:25.245Z,39.00
2022-07-29T16:36:52.075Z,38.95
2022-07-29T16:39:18.826Z,38.85
2022-07-29T16:41:45.570Z,38.78
2022-07-29T16:44:12.445Z,38.61
2022-07-29T16:46:41.424Z,38.57
2022-07-29T16:49:08.518Z,38.59
2022-07-29T16:51:35.404Z,38.55
2022-07-29T16:54:02.166Z,38.38
2022-07-29T16:56:29.012Z,38.34
2022-07-29T16:58:58.502Z,38.13
2022-07-29T17:01:25.434Z,38.26
2022-07-29T17:04:07.428Z,38.03
2022-07-29T17:06:39.999Z,37.71
2022-07-29T17:09:08.957Z,37.61
2022-07-29T17:11:53.171Z,37.45
2022-07-29T17:14:27.810Z,37.16
2022-07-29T17:17:00.984Z,37.12
2022-07-29T17:19:34.099Z,37.09
2022-07-29T17:22:19.389Z,37.11
2022-07-29T17:24:47.670Z,36.92
2022-07-29T17:27:14.747Z,36.68
2022-07-29T17:29:41.948Z,36.64
2022-07-29T17:32:10.193Z,36.61
2022-07-29T17:34:38.558Z,36.72
2022-07-29T17:37:08.038Z,36.50
2022-07-29T17:39:35.775Z,36.22
2022-07-29T17:42:03.812Z,35.99
2022-07-29T17:44:30.772Z,36.00
2022-07-29T17:46:59.570Z,35.94
2022-07-29T17:49:27.202Z,35.71
2022-07-29T17:51:57.655Z,35.76
2022-07-29T17:54:28.967Z,35.72
2022-07-29T17:56:58.229Z,35.68
2022-07-29T17:59:25.207Z,35.60
2022-07-29T18:01:52.549Z,35.45
2022-07-29T18:04:21.246Z,35.45
2022-07-29T18:06:48.148Z,35.35
2022-07-29T18:09:16.076Z,35.39
2022-07-29T18:11:44.476Z,35.14
2022-07-29T18:14:12.810Z,35.21
2022-07-29T18:16:39.901Z,34.73
2022-07-29T18:19:06.904Z,34.54
2022-07-29T18:21:45.973Z,34.46
2022-07-29T18:24:20.685Z,34.28
2022-07-29T18:26:47.457Z,33.88
2022-07-29T18:29:14.235Z,33.66
2022-07-29T18:31:41.398Z,33.70
2022-07-29T18:34:08.478Z,33.34
2022-07-29T18:36:35.276Z,33.23
2022-07-29T18:39:02.238Z,33.26
2022-07-29T18:41:29.340Z,32.98
2022-07-29T18:43:56.205Z,32.96
2022-07-29T18:46:23.085Z,32.60
2022-07-29T18:48:52.605Z,32.38
2022-07-29T18:51:19.490Z,32.21
2022-07-29T18:53:46.396Z,31.92
2022-07-29T18:56:13.232Z,31.60
2022-07-29T18:58:39.963Z,31.50
2022-07-29T19:01:07.686Z,31.04
2022-07-29T19:03:34.984Z,30.66
2022-07-29T19:06:01.857Z,30.15
2022-07-29T19:08:28.774Z,30.28
2022-07-29T19:10:55.572Z,30.64
2022-07-29T19:13:22.984Z,30.74
2022-07-29T19:15:49.864Z,30.81
2022-07-29T19:18:16.636Z,30.55
2022-07-29T19:20:43.387Z,30.79
2022-07-29T19:23:10.284Z,30.60
2022-07-29T19:25:37.633Z,30.41
2022-07-29T19:28:20.866Z,30.58
2022-07-29T19:30:47.857Z,30.27
2022-07-29T19:33:17.695Z,30.49
2022-07-29T19:35:45.975Z,30.68
2022-07-29T19:38:12.799Z,30.64
2022-07-29T19:40:39.625Z,30.54
2022-07-29T19:43:51.993Z,30.63
2022-07-29T19:45:53.755Z,30.68
2022-07-29T19:48:20.604Z,30.87
2022-07-29T19:50:47.546Z,30.91
2022-07-29T19:53:14.487Z,31.11
2022-07-29T19:55:42.204Z,31.07
2022-07-29T19:58:09.084Z,31.12
2022-07-29T20:00:35.945Z,31.14
2022-07-29T20:03:04.877Z,31.04
2022-07-29T20:05:32.047Z,30.96
2022-07-29T20:07:58.933Z,30.82
2022-07-29T20:10:25.999Z,30.80
2022-07-29T20:12:53.770Z,30.87
2022-07-29T20:15:22.016Z,30.86
2022-07-29T20:17:48.875Z,30.94
2022-07-29T20:20:16.129Z,30.85
2022-07-29T20:22:43.309Z,30.81
2022-07-29T20:25:12.024Z,30.75
2022-07-29T20:27:42.895Z,30.71
2022-07-29T20:30:13.494Z,30.70
2022-07-29T20:32:41.610Z,30.72
2022-07-29T20:35:10.138Z,30.70
2022-07-29T20:37:55.499Z,30.62
2022-07-29T20:40:23.195Z,30.33
2022-07-29T20:42:50.165Z,30.42
2022-07-29T20:45:17.036Z,30.34
2022-07-29T20:47:43.791Z,30.34
2022-07-29T20:50:10.896Z,30.31
2022-07-29T20:52:40.686Z,30.27
2022-07-29T20:55:08.906Z,30.13
2022-07-29T20:57:39.047Z,30.13
2022-07-29T21:00:07.987Z,30.11
2022-07-29T21:02:34.966Z,30.12
2022-07-29T21:05:01.893Z,30.02
2022-07-29T21:07:28.707Z,29.77
2022-07-29T21:09:55.494Z,29.73
2022-07-29T21:12:22.877Z,29.80
2022-07-29T21:14:49.964Z,29.64
2022-07-29T21:17:19.570Z,29.54
2022-07-29T21:19:52.749Z,29.34
2022-07-29T21:22:22.204Z,29.42
2022-07-29T21:24:49.520Z,29.35
2022-07-29T21:27:35.346Z,29.31
2022-07-29T21:30:06.666Z,29.23
2022-07-29T21:32:33.477Z,29.03
2022-07-29T21:35:00.448Z,29.03
2022-07-29T21:37:28.215Z,28.48
2022-07-29T21:39:54.988Z,28.70
2022-07-29T21:42:21.954Z,28.67
2022-07-29T21:44:48.887Z,28.86
2022-07-29T21:47:15.627Z,28.86
2022-07-29T21:49:42.586Z,28.84
2022-07-29T21:52:09.357Z,28.88
2022-07-29T21:54:36.206Z,28.80
2022-07-29T21:57:04.033Z,28.75
2022-07-29T21:59:31.652Z,28.81
2022-07-29T22:02:01.214Z,28.85
2022-07-29T22:04:29.117Z,28.80
2022-07-29T22:06:56.585Z,28.75
2022-07-29T22:09:23.811Z,28.66
2022-07-29T22:11:50.586Z,28.66
2022-07-29T22:14:18.589Z,28.52
2022-07-29T22:16:46.237Z,28.65
2022-07-29T22:19:13.535Z,28.61
2022-07-29T22:21:41.357Z,28.38
2022-07-29T22:24:09.965Z,28.43
2022-07-29T22:26:37.546Z,28.43
2022-07-29T22:29:04.491Z,28.37
2022-07-29T22:31:31.386Z,28.25
2022-07-29T22:33:58.169Z,28.16
2022-07-29T22:36:25.675Z,28.18
2022-07-29T22:38:52.395Z,27.04
2022-07-29T22:41:19.251Z,27.60
2022-07-29T22:43:46.007Z,27.52
2022-07-29T22:46:13.069Z,27.55
2022-07-29T22:48:40.023Z,27.69
2022-07-29T22:51:07.288Z,27.64
2022-07-29T22:53:34.069Z,27.74
2022-07-29T22:56:00.955Z,27.76
2022-07-29T22:58:27.757Z,27.68
2022-07-29T23:00:54.686Z,27.82
2022-07-29T23:03:22.401Z,27.64
2022-07-29T23:05:51.651Z,27.59
2022-07-29T23:08:19.392Z,27.16
2022-07-29T23:10:46.347Z,27.22
2022-07-29T23:13:13.706Z,27.19
2022-07-29T23:15:41.046Z,26.83
2022-07-29T23:18:07.936Z,27.09
2022-07-29T23:20:35.127Z,26.87
2022-07-29T23:23:01.944Z,27.03
2022-07-29T23:25:28.975Z,26.61
2022-07-29T23:27:55.757Z,26.79
2022-07-29T23:30:22.595Z,26.62
2022-07-29T23:32:49.463Z,26.71
2022-07-29T23:35:16.328Z,26.98
2022-07-29T23:37:43.145Z,26.81
2022-07-29T23:40:14.210Z,26.64
2022-07-29T23:42:42.820Z,26.61
2022-07-29T23:45:10.910Z,26.60
2022-07-29T23:47:37.759Z,26.43
2022-07-29T23:50:06.289Z,26.52
2022-07-29T23:52:33.456Z,26.08
2022-07-29T23:55:37.407Z,26.15
2022-07-29T23:57:49.374Z,25.85
